Terminal Aerodrome Forecast
Issued by NWS Kansas City/Pleasant Hill, MO

Home | Current Version | Previous Version | Text Only | Print | Product List | Glossary On
Versions: 1 2 3 4 5 6 7 8 9 10 11 12 13 14 15 16 17
000
FTUS43 KEAX 271721
TAFMCI
TAF
KMCI 271721Z 2718/2818 14011KT P6SM SCT200
     FM280800 18013KT P6SM BKN250 WS020/20045KT
     FM281200 19014G25KT P6SM VCTS BKN090CB
     FM281500 19017G30KT P6SM BKN150=

USA.gov is the U.S. government's official web portal to all federal, state and local government web resources and services.